Terminal Aerodrome Forecast
Issued by NWS

Home | Current Version | Previous Version | Text Only | Print | Product List | Glossary Off
Versions: 1 2 3 4 5 6 7 8 9 10 11 12 13 14

000
FTUS45 KGGW 250000 AAA
TAFSDY
TAF AMD
KSDY 250013Z 2500/2524 18010KT P6SM VCTS SCT080CB
     FM250100 29030G50KT 3SM TSRAGR BKN080CB
     FM250200 30025G35KT P6SM VCTS BKN080CB
     FM250600 31013KT P6SM SKC
      AMD LTD TO CLD VIS AND WIND=

USA.gov is the U.S. government's official web portal to all federal, state and local government web resources and services.